Alba, Missouri
Current Conditions -  °F | °C
As of 12:53 PM on Monday 20 Oct 2014 (Local Time) from KJLN Reporting Station
Clear Clear  
Wind Chill: 70°   Ceiling: Unl
Heat Index: 70°   Visibility: 10mi
Dew Point: 58°   Wind: 8mph
Humidity: 65%   Direction: 330°NNW
Pressure: 30.07"   Gusts: NA
Location:  37.24°N, 94.42°W
Report Text: KJLN 201753Z 33007KT 10SM CLR 21/14 A3007 RMK AO2 SLP175 T02110144 10211 20144 58007
Loading
Personal Weather Stations






























Interactive Weather Map New forecast layout! Learn more

10-Day Weather Forecast

Advertisements
Track Severe Weather on mobile